Overview Statistics Trail Chart Weather Telemetry Raw packets
 

This is the latest recevied weather packets stored in our database for station/object KO4DYK. If no packets are shown the sender has not sent any weather packets the latest 10 day(s).

<< 40 41 42 43 44 45 46 >>
Time Temp. Humidity Pressure Rain* Wind** Luminosity Snow
1788386423 37.78° C 45% 1016.7 hPa 0 mm - 275 W/m² -
1788386119 37.22° C 45% 1016.7 hPa 0 mm - 322 W/m² -
1788385814 37.22° C 44% 1016.8 hPa 0 mm - 81 W/m² -
1788385514 38.33° C 43% 1016.7 hPa 0 mm - 81 W/m² -
1788385213 39.44° C 41% 1016.7 hPa 0 mm - 374 W/m² -
1788384909 40° C 40% 1016.8 hPa 0 mm - 145 W/m² -
1788384609 40° C 40% 1016.8 hPa 0 mm - 428 W/m² -
1788384304 40.56° C 38% 1016.8 hPa 0 mm - 445 W/m² -
1788384000 40° C 39% 1016.8 hPa 0 mm - 438 W/m² -
1788383696 39.44° C 39% 1016.9 hPa 0 mm - 453 W/m² -
1788383390 38.33° C 41% 1016.8 hPa 0 mm - 444 W/m² -
1788383085 39.44° C 40% 1016.9 hPa 0 mm - 477 W/m² -
1788382783 39.44° C 41% 1016.9 hPa 0 mm - 492 W/m² -
1788382478 38.89° C 43% 1017.1 hPa 0 mm - 459 W/m² -
1788382174 38.33° C 43% 1017 hPa 0 mm - 298 W/m² -
1788381873 37.22° C 44% 1017 hPa 0 mm - 234 W/m² -
1788381569 36.11° C 50% 1017.1 hPa 0 mm - 542 W/m² -
1788381264 36.11° C 55% 1017.2 hPa 0 mm - 558 W/m² -
1788380963 35.56° C 59% 1017.4 hPa 0 mm - 533 W/m² -
1788380659 36.11° C 57% 1017.5 hPa 0 mm - 115 W/m² -
1788380357 36.67° C 57% 1017.5 hPa 0 mm - 108 W/m² -
1788380056 36.67° C 53% 1017.7 hPa 0 mm - 131 W/m² -
1788379751 37.78° C 45% 1017.6 hPa 0 mm - 111 W/m² -
1788379447 37.78° C 43% 1017.6 hPa 0 mm - 112 W/m² -
1788379141 38.33° C 43% 1017.6 hPa 0 mm - 121 W/m² -

* Rain latest hour (hover to see other rain measurements)
** Current wind speed in m/s (hover to see current wind gust speed)